Time,TemperatureF,DewpointF,PressureIn,WindDirection,WindDirectionDegrees,WindSpeedMPH,WindSpeedGustMPH,Humidity,HourlyPrecipIn,Conditions,Clouds,dailyrainin,SoftwareType,DateUTC
2013-02-13 00:15:00,21.4,20.7,29.82,North,0,0.0,-999.0,97,-99.99,,,0.00,Acu-Link.com,2013-02-13 05:15:00,
2013-02-13 00:30:00,21.0,20.0,29.81,North,0,0.0,-999.0,96,-99.99,,,0.00,Acu-Link.com,2013-02-13 05:30:00,
2013-02-13 00:45:00,21.2,20.5,29.83,NNW,337,0.0,-999.0,97,-99.99,,,0.00,Acu-Link.com,2013-02-13 05:45:00,
2013-02-13 01:00:00,21.2,20.7,29.84,North,0,0.0,-999.0,98,-99.99,,,0.00,Acu-Link.com,2013-02-13 06:00:00,
2013-02-13 01:15:00,21.6,21.1,29.84,NE,45,0.0,-999.0,98,-99.99,,,0.00,Acu-Link.com,2013-02-13 06:15:00,
2013-02-13 01:30:00,20.5,19.8,29.84,NNW,337,0.0,-999.0,97,-99.99,,,0.00,Acu-Link.com,2013-02-13 06:30:00,
2013-02-13 01:45:00,20.3,19.8,29.84,SW,225,0.0,-999.0,98,-99.99,,,0.00,Acu-Link.com,2013-02-13 06:45:00,
2013-02-13 02:00:00,20.3,19.8,29.84,South,180,0.0,-999.0,98,-99.99,,,0.00,Acu-Link.com,2013-02-13 07:00:00,
2013-02-13 02:15:00,20.1,19.6,29.84,NNW,337,0.0,-999.0,98,-99.99,,,0.00,Acu-Link.com,2013-02-13 07:15:00,
2013-02-13 02:30:00,19.9,19.4,29.84,NW,315,0.0,-999.0,98,-99.99,,,0.00,Acu-Link.com,2013-02-13 07:30:00,
2013-02-13 02:46:00,19.9,19.4,29.83,NW,315,0.0,-999.0,98,-99.99,,,0.00,Acu-Link.com,2013-02-13 07:46:00,
2013-02-13 03:01:00,19.2,18.3,29.83,NW,315,0.0,-999.0,96,-99.99,,,0.00,Acu-Link.com,2013-02-13 08:01:00,
2013-02-13 03:16:00,19.6,19.1,29.82,South,180,0.0,-999.0,98,-99.99,,,0.00,Acu-Link.com,2013-02-13 08:16:00,
2013-02-13 03:31:00,19.0,18.5,29.83,North,0,0.0,-999.0,98,-99.99,,,0.00,Acu-Link.com,2013-02-13 08:31:00,
2013-02-13 03:46:00,18.7,18.2,29.82,NW,315,0.0,-999.0,98,-99.99,,,0.00,Acu-Link.com,2013-02-13 08:46:00,
2013-02-13 04:16:00,19.4,18.9,29.81,NNW,337,0.0,-999.0,98,-99.99,,,0.00,Acu-Link.com,2013-02-13 09:16:00,
2013-02-13 04:31:00,18.7,18.0,29.82,SSE,157,0.0,-999.0,97,-99.99,,,0.00,Acu-Link.com,2013-02-13 09:31:00,
2013-02-13 04:46:00,18.5,18.0,29.82,NW,315,0.0,-999.0,98,-99.99,,,0.00,Acu-Link.com,2013-02-13 09:46:00,
2013-02-13 05:01:00,18.0,17.1,29.81,West,270,0.0,-999.0,96,-99.99,,,0.00,Acu-Link.com,2013-02-13 10:01:00,
2013-02-13 05:17:00,18.1,17.4,29.82,NW,315,0.0,-999.0,97,-99.99,,,0.00,Acu-Link.com,2013-02-13 10:17:00,
2013-02-13 05:32:00,18.1,17.2,29.82,SSE,157,0.0,-999.0,96,-99.99,,,0.00,Acu-Link.com,2013-02-13 10:32:00,
2013-02-13 05:47:00,17.6,16.4,29.81,West,270,0.0,-999.0,95,-99.99,,,0.00,Acu-Link.com,2013-02-13 10:47:00,
2013-02-13 06:02:00,18.3,17.8,29.81,NNE,22,0.0,-999.0,98,-99.99,,,0.00,Acu-Link.com,2013-02-13 11:02:00,
2013-02-13 06:17:00,17.4,16.5,29.80,West,270,0.0,-999.0,96,-99.99,,,0.00,Acu-Link.com,2013-02-13 11:17:00,
2013-02-13 06:32:00,17.4,16.5,29.80,NNW,337,0.0,-999.0,96,-99.99,,,0.00,Acu-Link.com,2013-02-13 11:32:00,
2013-02-13 06:47:00,18.7,18.2,29.80,South,180,0.0,-999.0,98,-99.99,,,0.00,Acu-Link.com,2013-02-13 11:47:00,
2013-02-13 07:02:00,17.6,17.1,29.80,WNW,292,0.0,-999.0,98,-99.99,,,0.00,Acu-Link.com,2013-02-13 12:02:00,
2013-02-13 07:18:00,17.4,16.7,29.80,NNE,22,0.0,-999.0,97,-99.99,,,0.00,Acu-Link.com,2013-02-13 12:18:00,
2013-02-13 07:33:00,18.5,18.0,29.79,SSE,157,0.0,-999.0,98,-99.99,,,0.00,Acu-Link.com,2013-02-13 12:33:00,
2013-02-13 07:48:00,19.2,18.7,29.79,NNW,337,0.0,-999.0,98,-99.99,,,0.00,Acu-Link.com,2013-02-13 12:48:00,
2013-02-13 08:03:00,21.7,21.2,29.78,NNE,22,0.0,-999.0,98,-99.99,,,0.00,Acu-Link.com,2013-02-13 13:03:00,
2013-02-13 08:18:00,24.1,23.6,29.77,SW,225,0.0,-999.0,98,-99.99,,,0.00,Acu-Link.com,2013-02-13 13:18:00,
2013-02-13 08:33:00,25.5,25.0,29.77,North,0,0.0,-999.0,98,-99.99,,,0.00,Acu-Link.com,2013-02-13 13:33:00,
2013-02-13 08:48:00,25.7,25.2,29.76,South,180,0.0,-999.0,98,-99.99,,,0.00,Acu-Link.com,2013-02-13 13:48:00,
2013-02-13 09:03:00,26.4,25.9,29.76,SE,135,0.0,-999.0,98,-99.99,,,0.00,Acu-Link.com,2013-02-13 14:03:00,
2013-02-13 09:18:00,27.1,26.1,29.76,South,180,0.0,-999.0,96,-99.99,,,0.00,Acu-Link.com,2013-02-13 14:18:00,
2013-02-13 09:34:00,28.6,27.4,29.77,SE,135,0.0,-999.0,95,-99.99,,,0.00,Acu-Link.com,2013-02-13 14:34:00,
2013-02-13 09:49:00,29.5,27.7,29.75,ESE,112,2.7,-999.0,93,-99.99,,,0.00,Acu-Link.com,2013-02-13 14:49:00,
2013-02-13 10:04:00,30.2,27.9,29.75,NNE,22,1.1,-999.0,91,-99.99,,,0.00,Acu-Link.com,2013-02-13 15:04:00,
2013-02-13 10:19:00,28.9,26.6,29.75,NNW,337,1.7,-999.0,91,-99.99,,,0.00,Acu-Link.com,2013-02-13 15:19:00,
2013-02-13 10:34:00,30.0,27.4,29.75,NE,45,1.7,-999.0,90,-99.99,,,0.00,Acu-Link.com,2013-02-13 15:34:00,
2013-02-13 10:49:00,31.5,28.4,29.74,North,0,2.7,-999.0,88,-99.99,,,0.00,Acu-Link.com,2013-02-13 15:49:00,
2013-02-13 11:04:00,32.2,28.2,29.74,ESE,112,2.7,-999.0,85,-99.99,,,0.00,Acu-Link.com,2013-02-13 16:04:00,
2013-02-13 11:20:00,34.7,29.8,29.73,ESE,112,2.2,-999.0,82,-99.99,,,0.00,Acu-Link.com,2013-02-13 16:20:00,
2013-02-13 11:35:00,36.5,30.6,29.74,East,90,1.7,-999.0,79,-99.99,,,0.00,Acu-Link.com,2013-02-13 16:35:00,
2013-02-13 11:50:00,38.3,31.7,29.71,ESE,112,2.7,-999.0,77,-99.99,,,0.00,Acu-Link.com,2013-02-13 16:50:00,
2013-02-13 12:05:00,39.9,33.0,29.70,West,270,1.7,-999.0,76,-99.99,,,0.00,Acu-Link.com,2013-02-13 17:05:00,
2013-02-13 12:20:00,41.4,33.7,29.69,North,0,2.2,-999.0,74,-99.99,,,0.00,Acu-Link.com,2013-02-13 17:20:00,
2013-02-13 12:35:00,42.1,32.7,29.67,NE,45,3.2,-999.0,69,-99.99,,,0.00,Acu-Link.com,2013-02-13 17:35:00,
2013-02-13 12:50:00,41.9,32.1,29.67,ESE,112,0.0,-999.0,68,-99.99,,,0.00,Acu-Link.com,2013-02-13 17:50:00,
2013-02-13 13:05:00,41.9,32.1,29.66,SE,135,2.7,-999.0,68,-99.99,,,0.00,Acu-Link.com,2013-02-13 18:05:00,
2013-02-13 13:20:00,41.7,31.6,29.67,North,0,1.7,-999.0,67,-99.99,,,0.00,Acu-Link.com,2013-02-13 18:20:00,
2013-02-13 13:36:00,41.4,31.3,29.65,ESE,112,2.2,-999.0,67,-99.99,,,0.00,Acu-Link.com,2013-02-13 18:36:00,
2013-02-13 13:51:00,41.7,31.9,29.64,ENE,67,2.7,-999.0,68,-99.99,,,0.00,Acu-Link.com,2013-02-13 18:51:00,
2013-02-13 14:06:00,41.7,31.6,29.63,NNE,22,2.7,-999.0,67,-99.99,,,0.00,Acu-Link.com,2013-02-13 19:06:00,
2013-02-13 14:21:00,41.7,31.2,29.61,NNE,22,2.7,-999.0,66,-99.99,,,0.00,Acu-Link.com,2013-02-13 19:21:00,
2013-02-13 14:36:00,41.5,31.4,29.60,NE,45,0.0,-999.0,67,-99.99,,,0.00,Acu-Link.com,2013-02-13 19:36:00,
2013-02-13 14:51:00,42.1,32.3,29.60,North,0,2.2,-999.0,68,-99.99,,,0.00,Acu-Link.com,2013-02-13 19:51:00,
2013-02-13 15:06:00,43.0,32.4,29.59,SSE,157,1.1,-999.0,66,-99.99,,,0.00,Acu-Link.com,2013-02-13 20:06:00,
2013-02-13 15:21:00,42.1,31.6,29.60,NW,315,1.7,-999.0,66,-99.99,,,0.00,Acu-Link.com,2013-02-13 20:21:00,
2013-02-13 15:36:00,41.5,31.7,29.60,NNE,22,0.0,-999.0,68,-99.99,,,0.00,Acu-Link.com,2013-02-13 20:36:00,
2013-02-13 15:52:00,40.8,31.4,29.59,NNE,22,2.7,-999.0,69,-99.99,,,0.00,Acu-Link.com,2013-02-13 20:52:00,
2013-02-13 16:07:00,40.3,31.3,29.58,NE,45,2.7,-999.0,70,-99.99,,,0.00,Acu-Link.com,2013-02-13 21:07:00,
2013-02-13 16:22:00,39.7,31.4,29.57,South,180,1.1,-999.0,72,-99.99,,,0.00,Acu-Link.com,2013-02-13 21:22:00,
2013-02-13 16:37:00,39.2,30.9,29.58,NNE,22,0.0,-999.0,72,-99.99,,,0.00,Acu-Link.com,2013-02-13 21:37:00,
2013-02-13 16:52:00,38.8,30.9,29.57,NE,45,0.0,-999.0,73,-99.99,,,0.00,Acu-Link.com,2013-02-13 21:52:00,
2013-02-13 17:07:00,37.9,30.7,29.57,East,90,2.2,-999.0,75,-99.99,,,0.00,Acu-Link.com,2013-02-13 22:07:00,
2013-02-13 17:22:00,37.6,30.4,29.56,East,90,0.0,-999.0,75,-99.99,,,0.00,Acu-Link.com,2013-02-13 22:22:00,
2013-02-13 17:37:00,37.0,29.8,29.57,ENE,67,0.0,-999.0,75,-99.99,,,0.00,Acu-Link.com,2013-02-13 22:37:00,
2013-02-13 17:52:00,36.5,30.0,29.58,East,90,0.0,-999.0,77,-99.99,,,0.00,Acu-Link.com,2013-02-13 22:52:00,
2013-02-13 18:08:00,36.5,32.1,29.59,South,180,3.7,-999.0,84,-99.99,,,0.00,Acu-Link.com,2013-02-13 23:08:00,
2013-02-13 18:23:00,35.2,33.4,29.60,SSE,157,0.0,-999.0,93,-99.99,,,0.00,Acu-Link.com,2013-02-13 23:23:00,
2013-02-13 18:38:00,34.7,33.4,29.60,NNW,337,0.0,-999.0,95,-99.99,,,0.00,Acu-Link.com,2013-02-13 23:38:00,
2013-02-13 18:53:00,34.2,33.2,29.60,SW,225,0.0,-999.0,96,-99.99,,,0.00,Acu-Link.com,2013-02-13 23:53:00,
2013-02-13 19:08:00,33.8,33.0,29.60,SE,135,0.0,-999.0,97,-99.99,,,0.00,Acu-Link.com,2013-02-14 00:08:00,
2013-02-13 19:23:00,33.3,32.8,29.60,SSE,157,0.0,-999.0,98,-99.99,,,0.00,Acu-Link.com,2013-02-14 00:23:00,
2013-02-13 19:38:00,33.3,32.8,29.60,SSE,157,0.0,-999.0,98,-99.99,,,0.00,Acu-Link.com,2013-02-14 00:38:00,
2013-02-13 19:53:00,32.9,32.4,29.60,East,90,0.0,-999.0,98,-99.99,,,0.00,Acu-Link.com,2013-02-14 00:53:00,
2013-02-13 20:09:00,32.7,32.2,29.60,ENE,67,0.0,-999.0,98,-99.99,,,0.00,Acu-Link.com,2013-02-14 01:09:00,
2013-02-13 20:24:00,32.5,32.0,29.61,ENE,67,0.0,-999.0,98,-99.99,,,0.00,Acu-Link.com,2013-02-14 01:24:00,
2013-02-13 20:39:00,32.5,32.0,29.60,NNW,337,0.0,-999.0,98,-99.99,,,0.00,Acu-Link.com,2013-02-14 01:39:00,
2013-02-13 20:54:00,32.5,32.0,29.59,ESE,112,0.0,-999.0,98,-99.99,,,0.00,Acu-Link.com,2013-02-14 01:54:00,
2013-02-13 21:09:00,32.4,31.9,29.59,North,0,0.0,-999.0,98,-99.99,,,0.00,Acu-Link.com,2013-02-14 02:09:00,
2013-02-13 21:24:00,32.4,31.9,29.60,West,270,0.0,-999.0,98,-99.99,,,0.00,Acu-Link.com,2013-02-14 02:24:00,
2013-02-13 21:39:00,32.4,31.9,29.60,ESE,112,0.0,-999.0,98,-99.99,,,0.00,Acu-Link.com,2013-02-14 02:39:00,
2013-02-13 21:54:00,32.4,31.9,29.59,WSW,247,0.0,-999.0,98,-99.99,,,0.00,Acu-Link.com,2013-02-14 02:54:00,
2013-02-13 22:10:00,32.5,32.0,29.60,West,270,0.0,-999.0,98,-99.99,,,0.00,Acu-Link.com,2013-02-14 03:10:00,
2013-02-13 22:25:00,32.5,32.0,29.60,NW,315,0.0,-999.0,98,-99.99,,,0.00,Acu-Link.com,2013-02-14 03:25:00,
2013-02-13 22:40:00,32.5,32.0,29.59,SSE,157,0.0,-999.0,98,-99.99,,,0.00,Acu-Link.com,2013-02-14 03:40:00,
2013-02-13 22:55:00,32.5,32.0,29.60,West,270,0.0,-999.0,98,-99.99,,,0.00,Acu-Link.com,2013-02-14 03:55:00,
2013-02-13 23:10:00,32.4,31.9,29.61,ESE,112,0.0,-999.0,98,-99.99,,,0.00,Acu-Link.com,2013-02-14 04:10:00,
2013-02-13 23:25:00,32.0,31.5,29.62,West,270,0.0,-999.0,98,-99.99,,,0.00,Acu-Link.com,2013-02-14 04:25:00,
2013-02-13 23:41:00,32.0,31.5,29.62,West,270,0.0,-999.0,98,-99.99,,,0.00,Acu-Link.com,2013-02-14 04:41:00,
2013-02-13 23:56:00,32.4,31.9,29.63,West,270,0.0,-999.0,98,-99.99,,,0.00,Acu-Link.com,2013-02-14 04:56:00,